sensor_id;sensor_type;location;lat;lon;timestamp;pressure;altitude;pressure_sealevel;temperature;humidity
64668;BME280;51077;42.716;23.344;2023-12-20T00:01:16;95744.69;;;6.12;49.74
64668;BME280;51077;42.716;23.344;2023-12-20T00:03:42;95739.72;;;6.10;49.81
64668;BME280;51077;42.716;23.344;2023-12-20T00:06:07;95735.94;;;6.08;49.43
64668;BME280;51077;42.716;23.344;2023-12-20T00:08:32;95742.63;;;6.07;49.38
64668;BME280;51077;42.716;23.344;2023-12-20T00:10:58;95733.41;;;6.04;49.48
64668;BME280;51077;42.716;23.344;2023-12-20T00:13:23;95729.66;;;6.01;49.62
64668;BME280;51077;42.716;23.344;2023-12-20T00:15:48;95723.94;;;5.99;49.61
64668;BME280;51077;42.716;23.344;2023-12-20T00:18:14;95726.38;;;5.97;49.65
64668;BME280;51077;42.716;23.344;2023-12-20T00:20:39;95723.34;;;5.95;49.50
64668;BME280;51077;42.716;23.344;2023-12-20T00:23:04;95718.88;;;5.92;49.73
64668;BME280;51077;42.716;23.344;2023-12-20T00:25:30;95713.09;;;5.90;49.65
64668;BME280;51077;42.716;23.344;2023-12-20T00:27:55;95717.03;;;5.89;49.53
64668;BME280;51077;42.716;23.344;2023-12-20T00:30:21;95702.84;;;5.85;49.20
64668;BME280;51077;42.716;23.344;2023-12-20T00:32:46;95704.09;;;5.84;49.22
64668;BME280;51077;42.716;23.344;2023-12-20T00:35:15;95707.25;;;5.83;49.55
64668;BME280;51077;42.716;23.344;2023-12-20T00:37:42;95701.53;;;5.80;49.52
64668;BME280;51077;42.716;23.344;2023-12-20T00:40:08;95701.53;;;5.80;49.80
64668;BME280;51077;42.716;23.344;2023-12-20T00:42:34;95697.78;;;5.78;49.85
64668;BME280;51077;42.716;23.344;2023-12-20T00:45:00;95696.28;;;5.77;49.79
64668;BME280;51077;42.716;23.344;2023-12-20T00:47:25;95696.75;;;5.75;49.96
64668;BME280;51077;42.716;23.344;2023-12-20T00:49:51;95692.25;;;5.72;49.86
64668;BME280;51077;42.716;23.344;2023-12-20T00:52:18;95683.31;;;5.72;49.99
64668;BME280;51077;42.716;23.344;2023-12-20T00:54:43;95683.03;;;5.70;49.76
64668;BME280;51077;42.716;23.344;2023-12-20T00:57:09;95687.72;;;5.69;49.89
64668;BME280;51077;42.716;23.344;2023-12-20T00:59:34;95686.53;;;5.70;49.90
64668;BME280;51077;42.716;23.344;2023-12-20T01:02:00;95680.50;;;5.66;50.01
64668;BME280;51077;42.716;23.344;2023-12-20T01:04:25;95680.50;;;5.66;50.07
64668;BME280;51077;42.716;23.344;2023-12-20T01:06:52;95676.25;;;5.65;50.17
64668;BME280;51077;42.716;23.344;2023-12-20T01:09:17;95671.31;;;5.64;50.03
64668;BME280;51077;42.716;23.344;2023-12-20T01:11:43;95667.06;;;5.63;49.97
64668;BME280;51077;42.716;23.344;2023-12-20T01:14:09;95668.31;;;5.62;50.33
64668;BME280;51077;42.716;23.344;2023-12-20T01:16:34;95666.78;;;5.61;49.83
64668;BME280;51077;42.716;23.344;2023-12-20T01:19:00;95662.28;;;5.58;50.12
64668;BME280;51077;42.716;23.344;2023-12-20T01:21:25;95662.28;;;5.58;49.94
64668;BME280;51077;42.716;23.344;2023-12-20T01:23:51;95653.06;;;5.55;50.08
64668;BME280;51077;42.716;23.344;2023-12-20T01:26:16;95659.75;;;5.54;50.09
64668;BME280;51077;42.716;23.344;2023-12-20T01:28:42;95654.75;;;5.52;49.96
64668;BME280;51077;42.716;23.344;2023-12-20T01:31:08;95640.88;;;5.50;49.73
64668;BME280;51077;42.716;23.344;2023-12-20T01:33:33;95638.16;;;5.50;50.25
64668;BME280;51077;42.716;23.344;2023-12-20T01:35:58;95635.13;;;5.48;49.99
64668;BME280;51077;42.716;23.344;2023-12-20T01:38:24;95634.84;;;5.46;49.99
64668;BME280;51077;42.716;23.344;2023-12-20T01:40:49;95630.34;;;5.43;49.87
64668;BME280;51077;42.716;23.344;2023-12-20T01:43:15;95630.34;;;5.43;49.96
64668;BME280;51077;42.716;23.344;2023-12-20T01:45:40;95627.63;;;5.43;49.77
64668;BME280;51077;42.716;23.344;2023-12-20T01:48:06;95615.25;;;5.42;49.79
64668;BME280;51077;42.716;23.344;2023-12-20T01:50:35;95619.63;;;5.40;49.75
64668;BME280;51077;42.716;23.344;2023-12-20T01:53:01;95612.25;;;5.40;49.82
64668;BME280;51077;42.716;23.344;2023-12-20T01:55:28;95609.97;;;5.39;50.13
64668;BME280;51077;42.716;23.344;2023-12-20T01:57:54;95612.69;;;5.39;50.25
64668;BME280;51077;42.716;23.344;2023-12-20T02:00:21;95604.09;;;5.40;50.01
64668;BME280;51077;42.716;23.344;2023-12-20T02:02:50;95607.25;;;5.39;49.93
64668;BME280;51077;42.716;23.344;2023-12-20T02:05:16;95601.81;;;5.39;49.97
64668;BME280;51077;42.716;23.344;2023-12-20T02:07:42;95605.75;;;5.38;49.98
64668;BME280;51077;42.716;23.344;2023-12-20T02:10:07;95600.31;;;5.38;49.91
64668;BME280;51077;42.716;23.344;2023-12-20T02:12:33;95597.88;;;5.40;49.93
64668;BME280;51077;42.716;23.344;2023-12-20T02:14:58;95590.91;;;5.39;50.17
64668;BME280;51077;42.716;23.344;2023-12-20T02:17:25;95590.19;;;5.38;49.98
64668;BME280;51077;42.716;23.344;2023-12-20T02:19:51;95590.19;;;5.38;50.32
64668;BME280;51077;42.716;23.344;2023-12-20T02:22:16;95588.19;;;5.39;50.22
64668;BME280;51077;42.716;23.344;2023-12-20T02:24:41;95582.00;;;5.38;50.14
64668;BME280;51077;42.716;23.344;2023-12-20T02:27:08;95587.75;;;5.40;50.06
64668;BME280;51077;42.716;23.344;2023-12-20T02:29:34;95585.03;;;5.40;50.13
64668;BME280;51077;42.716;23.344;2023-12-20T02:32:00;95574.59;;;5.39;49.78
64668;BME280;51077;42.716;23.344;2023-12-20T02:34:25;95570.38;;;5.38;49.95
64668;BME280;51077;42.716;23.344;2023-12-20T02:36:51;95572.34;;;5.37;50.19
64668;BME280;51077;42.716;23.344;2023-12-20T02:39:16;95573.56;;;5.36;50.26
64668;BME280;51077;42.716;23.344;2023-12-20T02:41:42;95565.41;;;5.36;50.15
64668;BME280;51077;42.716;23.344;2023-12-20T02:44:07;95560.72;;;5.37;50.15
64668;BME280;51077;42.716;23.344;2023-12-20T02:46:34;95560.72;;;5.37;49.92
64668;BME280;51077;42.716;23.344;2023-12-20T02:48:59;95554.53;;;5.36;49.71
64668;BME280;51077;42.716;23.344;2023-12-20T02:51:24;95561.16;;;5.35;49.93
64668;BME280;51077;42.716;23.344;2023-12-20T02:53:50;95567.38;;;5.36;49.97
64668;BME280;51077;42.716;23.344;2023-12-20T02:56:15;95556.94;;;5.34;50.06
64668;BME280;51077;42.716;23.344;2023-12-20T02:58:40;95562.41;;;5.34;50.06
64668;BME280;51077;42.716;23.344;2023-12-20T03:01:06;95562.41;;;5.34;50.20
64668;BME280;51077;42.716;23.344;2023-12-20T03:03:31;95563.88;;;5.35;49.96
64668;BME280;51077;42.716;23.344;2023-12-20T03:05:57;95561.16;;;5.35;50.01
64668;BME280;51077;42.716;23.344;2023-12-20T03:08:22;95560.41;;;5.35;49.98
64668;BME280;51077;42.716;23.344;2023-12-20T03:10:47;95556.94;;;5.34;50.05
64668;BME280;51077;42.716;23.344;2023-12-20T03:13:13;95557.69;;;5.35;50.04
64668;BME280;51077;42.716;23.344;2023-12-20T03:15:38;95551.50;;;5.34;50.17
64668;BME280;51077;42.716;23.344;2023-12-20T03:18:04;95548.03;;;5.34;49.92
64668;BME280;51077;42.716;23.344;2023-12-20T03:20:29;95541.09;;;5.33;50.13
64668;BME280;51077;42.716;23.344;2023-12-20T03:22:58;95547.00;;;5.31;49.81
64668;BME280;51077;42.716;23.344;2023-12-20T03:25:23;95550.94;;;5.30;49.83
64668;BME280;51077;42.716;23.344;2023-12-20T03:27:49;95544.00;;;5.29;50.10
64668;BME280;51077;42.716;23.344;2023-12-20T03:30:14;95535.84;;;5.29;50.18
64668;BME280;51077;42.716;23.344;2023-12-20T03:32:39;95545.22;;;5.28;50.26
64668;BME280;51077;42.716;23.344;2023-12-20T03:35:05;95539.50;;;5.26;50.02
64668;BME280;51077;42.716;23.344;2023-12-20T03:37:31;95539.97;;;5.24;50.13
64668;BME280;51077;42.716;23.344;2023-12-20T03:39:56;95538.47;;;5.23;50.35
64668;BME280;51077;42.716;23.344;2023-12-20T03:42:22;95538.47;;;5.23;50.06
64668;BME280;51077;42.716;23.344;2023-12-20T03:44:47;95538.47;;;5.23;49.90
64668;BME280;51077;42.716;23.344;2023-12-20T03:47:12;95542.88;;;5.21;50.20
64668;BME280;51077;42.716;23.344;2023-12-20T03:49:38;95528.25;;;5.18;50.26
64668;BME280;51077;42.716;23.344;2023-12-20T03:52:04;95534.16;;;5.17;50.34
64668;BME280;51077;42.716;23.344;2023-12-20T03:54:29;95534.16;;;5.17;50.22
64668;BME280;51077;42.716;23.344;2023-12-20T03:56:55;95534.63;;;5.15;50.28
64668;BME280;51077;42.716;23.344;2023-12-20T03:59:20;95536.59;;;5.15;50.34
64668;BME280;51077;42.716;23.344;2023-12-20T04:01:45;95533.88;;;5.15;50.11
64668;BME280;51077;42.716;23.344;2023-12-20T04:04:11;95525.44;;;5.13;50.26
64668;BME280;51077;42.716;23.344;2023-12-20T04:06:37;95518.00;;;5.13;50.59
64668;BME280;51077;42.716;23.344;2023-12-20T04:09:03;95519.97;;;5.13;50.43
64668;BME280;51077;42.716;23.344;2023-12-20T04:11:28;95509.84;;;5.13;50.25
64668;BME280;51077;42.716;23.344;2023-12-20T04:13:54;95508.34;;;5.12;50.31
64668;BME280;51077;42.716;23.344;2023-12-20T04:16:19;95508.84;;;5.11;50.33
64668;BME280;51077;42.716;23.344;2023-12-20T04:18:44;95506.13;;;5.11;50.48
64668;BME280;51077;42.716;23.344;2023-12-20T04:21:10;95500.84;;;5.07;50.63
64668;BME280;51077;42.716;23.344;2023-12-20T04:23:35;95497.38;;;5.07;50.65
64668;BME280;51077;42.716;23.344;2023-12-20T04:26:01;95501.34;;;5.06;50.34
64668;BME280;51077;42.716;23.344;2023-12-20T04:28:26;95490.44;;;5.06;50.45
64668;BME280;51077;42.716;23.344;2023-12-20T04:30:51;95496.34;;;5.04;50.46
64668;BME280;51077;42.716;23.344;2023-12-20T04:33:17;95486.69;;;5.03;50.45
64668;BME280;51077;42.716;23.344;2023-12-20T04:35:42;95497.09;;;5.04;50.64
64668;BME280;51077;42.716;23.344;2023-12-20T04:38:08;95485.19;;;5.02;50.82
64668;BME280;51077;42.716;23.344;2023-12-20T04:40:34;95486.41;;;5.01;50.61
64668;BME280;51077;42.716;23.344;2023-12-20T04:42:59;95487.91;;;5.02;50.54
64668;BME280;51077;42.716;23.344;2023-12-20T04:45:25;95486.41;;;5.01;50.51
64668;BME280;51077;42.716;23.344;2023-12-20T04:47:51;95480.19;;;5.00;50.52
64668;BME280;51077;42.716;23.344;2023-12-20T04:50:16;95483.78;;;5.07;52.26
64668;BME280;51077;42.716;23.344;2023-12-20T04:52:42;95478.91;;;5.11;53.91
64668;BME280;51077;42.716;23.344;2023-12-20T04:55:08;95480.41;;;5.12;54.63
64668;BME280;51077;42.716;23.344;2023-12-20T04:57:34;95474.22;;;5.11;54.32
64668;BME280;51077;42.716;23.344;2023-12-20T05:00:00;95478.91;;;5.11;54.30
64668;BME280;51077;42.716;23.344;2023-12-20T05:02:25;95484.06;;;5.09;54.16
64668;BME280;51077;42.716;23.344;2023-12-20T05:04:51;95479.09;;;5.07;53.90
64668;BME280;51077;42.716;23.344;2023-12-20T05:07:16;95476.84;;;5.06;54.00
64668;BME280;51077;42.716;23.344;2023-12-20T05:09:41;95471.84;;;5.04;53.59
64668;BME280;51077;42.716;23.344;2023-12-20T05:12:07;95476.56;;;5.03;53.48
64668;BME280;51077;42.716;23.344;2023-12-20T05:14:33;95467.66;;;5.03;53.18
64668;BME280;51077;42.716;23.344;2023-12-20T05:16:58;95477.03;;;5.02;53.18
64668;BME280;51077;42.716;23.344;2023-12-20T05:19:24;95466.16;;;5.02;53.31
64668;BME280;51077;42.716;23.344;2023-12-20T05:21:50;95466.59;;;5.00;53.27
64668;BME280;51077;42.716;23.344;2023-12-20T05:24:15;95459.66;;;4.99;52.96
64668;BME280;51077;42.716;23.344;2023-12-20T05:26:40;95469.31;;;5.00;52.57
64668;BME280;51077;42.716;23.344;2023-12-20T05:29:06;95461.16;;;5.00;52.67
64668;BME280;51077;42.716;23.344;2023-12-20T05:31:31;95460.91;;;4.98;52.80
64668;BME280;51077;42.716;23.344;2023-12-20T05:33:57;95461.66;;;4.99;52.62
64668;BME280;51077;42.716;23.344;2023-12-20T05:36:22;95453.22;;;4.97;52.42
64668;BME280;51077;42.716;23.344;2023-12-20T05:38:48;95451.69;;;4.96;52.42
64668;BME280;51077;42.716;23.344;2023-12-20T05:41:13;95454.41;;;4.96;52.51
64668;BME280;51077;42.716;23.344;2023-12-20T05:43:39;95451.69;;;4.96;52.35
64668;BME280;51077;42.716;23.344;2023-12-20T05:46:05;95450.19;;;4.95;51.95
64668;BME280;51077;42.716;23.344;2023-12-20T05:48:30;95439.81;;;4.93;52.43
64668;BME280;51077;42.716;23.344;2023-12-20T05:50:55;95442.53;;;4.93;52.10
64668;BME280;51077;42.716;23.344;2023-12-20T05:53:21;95445.69;;;4.92;52.19
64668;BME280;51077;42.716;23.344;2023-12-20T05:55:46;95438.75;;;4.91;52.00
64668;BME280;51077;42.716;23.344;2023-12-20T05:58:12;95443.44;;;4.90;52.00
64668;BME280;51077;42.716;23.344;2023-12-20T06:00:37;95441.97;;;4.89;51.90
64668;BME280;51077;42.716;23.344;2023-12-20T06:03:03;95430.78;;;4.87;52.18
64668;BME280;51077;42.716;23.344;2023-12-20T06:05:30;95433.50;;;4.87;51.96
64668;BME280;51077;42.716;23.344;2023-12-20T06:07:55;95436.22;;;4.87;52.00
64668;BME280;51077;42.716;23.344;2023-12-20T06:10:26;95432.75;;;4.87;51.73
64668;BME280;51077;42.716;23.344;2023-12-20T06:12:52;95434.72;;;4.86;51.91
64668;BME280;51077;42.716;23.344;2023-12-20T06:15:18;95433.72;;;4.84;51.72
64668;BME280;51077;42.716;23.344;2023-12-20T06:17:43;95435.22;;;4.85;51.82
64668;BME280;51077;42.716;23.344;2023-12-20T06:20:09;95441.41;;;4.85;51.93
64668;BME280;51077;42.716;23.344;2023-12-20T06:22:35;95436.44;;;4.84;51.89
64668;BME280;51077;42.716;23.344;2023-12-20T06:25:02;95438.69;;;4.85;51.62
64668;BME280;51077;42.716;23.344;2023-12-20T06:27:28;95436.72;;;4.86;51.56
64668;BME280;51077;42.716;23.344;2023-12-20T06:29:53;95435.97;;;4.85;51.45
64668;BME280;51077;42.716;23.344;2023-12-20T06:32:19;95431.00;;;4.84;51.66
64668;BME280;51077;42.716;23.344;2023-12-20T06:34:44;95437.19;;;4.84;51.42
64668;BME280;51077;42.716;23.344;2023-12-20T06:37:10;95438.69;;;4.85;51.66
64668;BME280;51077;42.716;23.344;2023-12-20T06:39:35;95426.31;;;4.84;51.61
64668;BME280;51077;42.716;23.344;2023-12-20T06:42:01;95423.09;;;4.86;51.72
64668;BME280;51077;42.716;23.344;2023-12-20T06:44:26;95429.28;;;4.86;51.60
64668;BME280;51077;42.716;23.344;2023-12-20T06:46:51;95422.91;;;4.89;51.39
64668;BME280;51077;42.716;23.344;2023-12-20T06:49:17;95420.75;;;4.93;51.71
64668;BME280;51077;42.716;23.344;2023-12-20T06:51:43;95421.03;;;4.95;51.13
64668;BME280;51077;42.716;23.344;2023-12-20T06:54:09;95414.91;;;5.00;51.38
64668;BME280;51077;42.716;23.344;2023-12-20T06:56:34;95415.97;;;5.03;51.13
64668;BME280;51077;42.716;23.344;2023-12-20T06:58:59;95418.50;;;5.07;51.06
64668;BME280;51077;42.716;23.344;2023-12-20T07:01:25;95409.97;;;5.14;51.21
64668;BME280;51077;42.716;23.344;2023-12-20T07:03:50;95403.56;;;5.17;50.88
64668;BME280;51077;42.716;23.344;2023-12-20T07:06:15;95413.00;;;5.21;50.75
64668;BME280;51077;42.716;23.344;2023-12-20T07:08:42;95400.72;;;5.26;50.89
64668;BME280;51077;42.716;23.344;2023-12-20T07:11:07;95402.75;;;5.31;50.74
64668;BME280;51077;42.716;23.344;2023-12-20T07:13:33;95416.16;;;5.35;50.99
64668;BME280;51077;42.716;23.344;2023-12-20T07:15:59;95404.34;;;5.38;50.73
64668;BME280;51077;42.716;23.344;2023-12-20T07:18:24;95401.88;;;5.40;50.55
64668;BME280;51077;42.716;23.344;2023-12-20T07:20:49;95400.19;;;5.42;50.79
64668;BME280;51077;42.716;23.344;2023-12-20T07:23:15;95398.78;;;5.47;50.61
64668;BME280;51077;42.716;23.344;2023-12-20T07:25:40;95395.88;;;5.50;50.43
64668;BME280;51077;42.716;23.344;2023-12-20T07:28:05;95396.41;;;5.54;50.64
64668;BME280;51077;42.716;23.344;2023-12-20T07:30:31;95394.69;;;5.57;50.19
64668;BME280;51077;42.716;23.344;2023-12-20T07:32:56;95389.34;;;5.63;50.59
64668;BME280;51077;42.716;23.344;2023-12-20T07:35:23;95393.81;;;5.66;50.10
64668;BME280;51077;42.716;23.344;2023-12-20T07:37:51;95385.94;;;5.68;50.31
64668;BME280;51077;42.716;23.344;2023-12-20T07:40:17;95404.06;;;5.71;50.22
64668;BME280;51077;42.716;23.344;2023-12-20T07:42:42;95385.00;;;5.71;50.10
64668;BME280;51077;42.716;23.344;2023-12-20T07:45:08;95389.22;;;5.72;50.18
64668;BME280;51077;42.716;23.344;2023-12-20T07:47:35;95385.75;;;5.71;50.06
64668;BME280;51077;42.716;23.344;2023-12-20T07:50:01;95387.72;;;5.71;50.33
64668;BME280;51077;42.716;23.344;2023-12-20T07:52:28;95381.53;;;5.70;50.12
64668;BME280;51077;42.716;23.344;2023-12-20T07:54:54;95374.34;;;5.73;50.49
64668;BME280;51077;42.716;23.344;2023-12-20T07:57:19;95373.88;;;5.74;50.21
64668;BME280;51077;42.716;23.344;2023-12-20T07:59:44;95379.59;;;5.76;49.95
64668;BME280;51077;42.716;23.344;2023-12-20T08:02:10;95373.41;;;5.76;50.09
64668;BME280;51077;42.716;23.344;2023-12-20T08:04:35;95387.28;;;5.78;50.45
64668;BME280;51077;42.716;23.344;2023-12-20T08:07:01;95387.28;;;5.78;50.11
64668;BME280;51077;42.716;23.344;2023-12-20T08:09:26;95379.13;;;5.78;50.15
64668;BME280;51077;42.716;23.344;2023-12-20T08:11:51;95375.94;;;5.79;50.28
64668;BME280;51077;42.716;23.344;2023-12-20T08:14:17;95369.25;;;5.80;50.19
64668;BME280;51077;42.716;23.344;2023-12-20T08:16:42;95367.81;;;5.85;50.34
64668;BME280;51077;42.716;23.344;2023-12-20T08:19:08;95375.06;;;5.88;50.23
64668;BME280;51077;42.716;23.344;2023-12-20T08:21:34;95368.63;;;5.91;50.13
64668;BME280;51077;42.716;23.344;2023-12-20T08:23:59;95358.31;;;5.95;49.89
64668;BME280;51077;42.716;23.344;2023-12-20T08:26:26;95360.34;;;6.00;49.95
64668;BME280;51077;42.716;23.344;2023-12-20T08:28:51;95365.38;;;6.08;49.55
64668;BME280;51077;42.716;23.344;2023-12-20T08:31:17;95359.97;;;6.13;49.88
64668;BME280;51077;42.716;23.344;2023-12-20T08:33:47;95348.66;;;6.20;49.86
64668;BME280;51077;42.716;23.344;2023-12-20T08:36:13;95345.72;;;6.24;49.62
64668;BME280;51077;42.716;23.344;2023-12-20T08:38:39;95344.28;;;6.28;49.35
64668;BME280;51077;42.716;23.344;2023-12-20T08:41:05;95347.25;;;6.30;49.45
64668;BME280;51077;42.716;23.344;2023-12-20T08:43:34;95335.16;;;6.32;49.32
64668;BME280;51077;42.716;23.344;2023-12-20T08:46:00;95339.38;;;6.33;49.57
64668;BME280;51077;42.716;23.344;2023-12-20T08:48:26;95331.94;;;6.33;49.61
64668;BME280;51077;42.716;23.344;2023-12-20T08:50:51;95325.72;;;6.33;49.47
64668;BME280;51077;42.716;23.344;2023-12-20T08:53:18;95330.44;;;6.32;49.63
64668;BME280;51077;42.716;23.344;2023-12-20T08:55:44;95322.50;;;6.34;49.84
64668;BME280;51077;42.716;23.344;2023-12-20T08:58:09;95320.28;;;6.33;49.41
64668;BME280;51077;42.716;23.344;2023-12-20T09:00:35;95315.56;;;6.33;49.72
64668;BME280;51077;42.716;23.344;2023-12-20T09:03:01;95310.88;;;6.34;49.30
64668;BME280;51077;42.716;23.344;2023-12-20T09:05:27;95304.19;;;6.35;49.62
64668;BME280;51077;42.716;23.344;2023-12-20T09:07:53;95289.81;;;6.34;50.00
64668;BME280;51077;42.716;23.344;2023-12-20T09:10:18;95276.91;;;6.35;49.80
64668;BME280;51077;42.716;23.344;2023-12-20T09:12:48;95273.44;;;6.34;49.49
64668;BME280;51077;42.716;23.344;2023-12-20T09:15:13;95268.28;;;6.36;49.80
64668;BME280;51077;42.716;23.344;2023-12-20T09:17:40;95259.59;;;6.38;49.35
64668;BME280;51077;42.716;23.344;2023-12-20T09:20:06;95261.09;;;6.39;49.65
64668;BME280;51077;42.716;23.344;2023-12-20T09:22:33;95253.44;;;6.43;49.29
64668;BME280;51077;42.716;23.344;2023-12-20T09:24:59;95244.81;;;6.44;49.57
64668;BME280;51077;42.716;23.344;2023-12-20T09:27:25;95235.38;;;6.45;49.48
64668;BME280;51077;42.716;23.344;2023-12-20T09:29:50;95231.19;;;6.50;49.36
64668;BME280;51077;42.716;23.344;2023-12-20T09:32:16;95231.44;;;6.52;49.43
64668;BME280;51077;42.716;23.344;2023-12-20T09:34:41;95223.53;;;6.54;49.41
64668;BME280;51077;42.716;23.344;2023-12-20T09:37:07;95223.06;;;6.55;49.42
64668;BME280;51077;42.716;23.344;2023-12-20T09:39:33;95209.69;;;6.58;49.31
64668;BME280;51077;42.716;23.344;2023-12-20T09:42:05;95212.66;;;6.60;49.41
64668;BME280;51077;42.716;23.344;2023-12-20T09:44:31;95210.97;;;6.62;49.31
64668;BME280;51077;42.716;23.344;2023-12-20T09:46:58;95201.78;;;6.65;49.46
64668;BME280;51077;42.716;23.344;2023-12-20T09:49:27;95186.44;;;6.68;49.40
64668;BME280;51077;42.716;23.344;2023-12-20T09:51:53;95195.13;;;6.72;49.27
64668;BME280;51077;42.716;23.344;2023-12-20T09:54:20;95203.84;;;6.76;49.54
64668;BME280;51077;42.716;23.344;2023-12-20T09:56:46;95189.22;;;6.79;49.53
64668;BME280;51077;42.716;23.344;2023-12-20T09:59:12;95187.28;;;6.85;49.25
64668;BME280;51077;42.716;23.344;2023-12-20T10:01:39;95184.31;;;6.89;49.45
64668;BME280;51077;42.716;23.344;2023-12-20T10:04:06;95184.34;;;6.94;49.23
64668;BME280;51077;42.716;23.344;2023-12-20T10:06:44;95181.63;;;7.00;49.06
64668;BME280;51077;42.716;23.344;2023-12-20T10:09:10;95177.91;;;7.03;48.63
64668;BME280;51077;42.716;23.344;2023-12-20T10:11:37;95174.47;;;7.08;49.03
64668;BME280;51077;42.716;23.344;2023-12-20T10:14:02;95156.88;;;7.15;49.03
64668;BME280;51077;42.716;23.344;2023-12-20T10:16:29;95160.34;;;7.15;48.60
64668;BME280;51077;42.716;23.344;2023-12-20T10:18:55;95162.59;;;7.17;49.00
64668;BME280;51077;42.716;23.344;2023-12-20T10:21:22;95148.19;;;7.16;49.00
64668;BME280;51077;42.716;23.344;2023-12-20T10:23:48;95136.53;;;7.16;48.80
64668;BME280;51077;42.716;23.344;2023-12-20T10:26:25;95137.78;;;7.15;49.34
64668;BME280;51077;42.716;23.344;2023-12-20T10:28:53;95132.56;;;7.17;49.17
64668;BME280;51077;42.716;23.344;2023-12-20T10:33:51;95125.38;;;7.25;49.23
64668;BME280;51077;42.716;23.344;2023-12-20T10:36:17;95123.66;;;7.33;48.89
64668;BME280;51077;42.716;23.344;2023-12-20T10:38:42;95113.25;;;7.43;49.21
64668;BME280;51077;42.716;23.344;2023-12-20T10:41:09;95112.78;;;7.55;48.71
64668;BME280;51077;42.716;23.344;2023-12-20T10:43:36;95108.81;;;7.62;48.80
64668;BME280;51077;42.716;23.344;2023-12-20T10:46:03;95109.56;;;7.68;48.37
64668;BME280;51077;42.716;23.344;2023-12-20T10:48:30;95109.31;;;7.72;48.41
64668;BME280;51077;42.716;23.344;2023-12-20T10:50:57;95094.16;;;7.76;48.37
64668;BME280;51077;42.716;23.344;2023-12-20T10:53:24;95098.63;;;7.85;48.37
64668;BME280;51077;42.716;23.344;2023-12-20T10:55:55;95097.88;;;7.90;47.97
64668;BME280;51077;42.716;23.344;2023-12-20T10:58:22;95091.91;;;7.97;48.15
64668;BME280;51077;42.716;23.344;2023-12-20T11:00:50;95085.19;;;8.04;48.07
64668;BME280;51077;42.716;23.344;2023-12-20T11:03:22;95089.41;;;8.11;48.07
64668;BME280;51077;42.716;23.344;2023-12-20T11:06:03;95070.00;;;8.20;47.75
64668;BME280;51077;42.716;23.344;2023-12-20T11:08:38;95069.47;;;8.27;48.07
64668;BME280;51077;42.716;23.344;2023-12-20T11:11:27;95059.53;;;8.35;47.76
64668;BME280;51077;42.716;23.344;2023-12-20T11:14:19;95062.78;;;8.45;47.89
64668;BME280;51077;42.716;23.344;2023-12-20T11:16:47;95055.78;;;8.49;47.77
64668;BME280;51077;42.716;23.344;2023-12-20T11:19:13;95058.53;;;8.49;47.42
64668;BME280;51077;42.716;23.344;2023-12-20T11:21:41;95043.09;;;8.52;47.88
64668;BME280;51077;42.716;23.344;2023-12-20T11:24:07;95048.81;;;8.54;47.73
64668;BME280;51077;42.716;23.344;2023-12-20T11:26:33;95038.63;;;8.54;47.88
64668;BME280;51077;42.716;23.344;2023-12-20T11:29:37;95028.38;;;8.61;47.54
64668;BME280;51077;42.716;23.344;2023-12-20T11:32:04;95024.38;;;8.62;47.67
64668;BME280;51077;42.716;23.344;2023-12-20T11:34:50;95012.22;;;8.63;47.59
64668;BME280;51077;42.716;23.344;2023-12-20T11:37:16;95004.44;;;8.72;47.57
64668;BME280;51077;42.716;23.344;2023-12-20T11:39:43;94993.78;;;8.69;47.58
64668;BME280;51077;42.716;23.344;2023-12-20T11:42:09;94994.56;;;8.64;47.59
64668;BME280;51077;42.716;23.344;2023-12-20T11:44:36;94986.38;;;8.58;47.86
64668;BME280;51077;42.716;23.344;2023-12-20T11:47:02;94986.38;;;8.52;48.00
64668;BME280;51077;42.716;23.344;2023-12-20T11:49:28;94981.69;;;8.47;48.27
64668;BME280;51077;42.716;23.344;2023-12-20T11:51:56;94975.50;;;8.41;48.60
64668;BME280;51077;42.716;23.344;2023-12-20T11:54:22;94969.06;;;8.33;48.66
64668;BME280;51077;42.716;23.344;2023-12-20T11:56:47;94957.63;;;8.29;48.75
64668;BME280;51077;42.716;23.344;2023-12-20T11:59:13;94952.44;;;8.25;48.95
64668;BME280;51077;42.716;23.344;2023-12-20T12:01:38;94964.66;;;8.19;49.07
64668;BME280;51077;42.716;23.344;2023-12-20T12:04:06;94944.28;;;8.14;49.07
64668;BME280;51077;42.716;23.344;2023-12-20T12:06:32;94946.53;;;8.10;49.25
64668;BME280;51077;42.716;23.344;2023-12-20T12:08:58;94936.88;;;8.03;49.05
64668;BME280;51077;42.716;23.344;2023-12-20T12:11:24;94934.91;;;7.98;49.58
64668;BME280;51077;42.716;23.344;2023-12-20T12:13:50;94930.44;;;7.95;49.50
64668;BME280;51077;42.716;23.344;2023-12-20T12:16:19;94928.69;;;7.92;49.51
64668;BME280;51077;42.716;23.344;2023-12-20T12:18:45;94926.72;;;7.87;49.67
64668;BME280;51077;42.716;23.344;2023-12-20T12:21:19;94920.28;;;7.85;49.85
64668;BME280;51077;42.716;23.344;2023-12-20T12:23:45;94908.88;;;7.80;49.84
64668;BME280;51077;42.716;23.344;2023-12-20T12:26:11;94908.13;;;7.80;50.02
64668;BME280;51077;42.716;23.344;2023-12-20T12:28:39;94909.63;;;7.81;50.06
64668;BME280;51077;42.716;23.344;2023-12-20T12:31:05;94920.78;;;7.83;50.31
64668;BME280;51077;42.716;23.344;2023-12-20T12:33:30;94924.00;;;7.87;50.23
64668;BME280;51077;42.716;23.344;2023-12-20T12:35:56;94918.53;;;7.93;50.19
64668;BME280;51077;42.716;23.344;2023-12-20T12:38:21;94910.81;;;7.97;49.86
64668;BME280;51077;42.716;23.344;2023-12-20T12:40:47;94910.00;;;8.07;50.04
64668;BME280;51077;42.716;23.344;2023-12-20T12:43:12;94907.97;;;8.19;49.47
64668;BME280;51077;42.716;23.344;2023-12-20T12:45:38;94907.91;;;8.30;49.36
64668;BME280;51077;42.716;23.344;2023-12-20T12:48:04;94907.91;;;8.36;49.51
64668;BME280;51077;42.716;23.344;2023-12-20T12:50:30;94899.16;;;8.43;49.41
64668;BME280;51077;42.716;23.344;2023-12-20T12:52:56;94897.91;;;8.44;49.54
64668;BME280;51077;42.716;23.344;2023-12-20T12:55:21;94895.19;;;8.44;49.23
64668;BME280;51077;42.716;23.344;2023-12-20T12:57:47;94898.94;;;8.41;49.29